Time;durP1;ratioP1;P1;durP2;ratioP2;P2;SDS_P1;SDS_P2;PMS_P1;PMS_P2;Temp;Humidity;BMP_temperature;BMP_pressure;BME280_temperature;BME280_humidity;BME280_pressure;Samples;Min_cycle;Max_cycle;Signal;HPM_P1;HPM_P2
2022/04/10 00:01:05;;;;;;;;;13.75;12.00;;;;;;;;5003408;28;51048;-66
2022/04/10 00:03:31;;;;;;;;;11.50;10.75;;;;;;;;5004506;28;51317;-66
2022/04/10 00:05:56;;;;;;;;;14.00;14.00;;;;;;;;5003499;28;52288;-65
2022/04/10 00:08:21;;;;;;;;;13.00;11.00;;;;;;;;5006809;28;51101;-66
2022/04/10 00:10:47;;;;;;;;;13.25;11.00;;;;;;;;5001003;28;52029;-65
2022/04/10 00:13:12;;;;;;;;;10.75;10.25;;;;;;;;5004085;28;51340;-67
2022/04/10 00:15:38;;;;;;;;;12.50;12.25;;;;;;;;5001814;28;52461;-65
2022/04/10 00:18:03;;;;;;;;;10.75;10.75;;;;;;;;4999328;28;51311;-65
2022/04/10 00:20:29;;;;;;;;;10.25;9.00;;;;;;;;5001700;28;51175;-65
2022/04/10 00:22:54;;;;;;;;;12.75;12.75;;;;;;;;5004296;28;51177;-65
2022/04/10 00:25:20;;;;;;;;;9.75;9.00;;;;;;;;5001902;28;51963;-65
2022/04/10 00:27:45;;;;;;;;;6.00;6.00;;;;;;;;4999895;28;51120;-65
2022/04/10 00:30:12;;;;;;;;;7.75;7.50;;;;;;;;5001398;28;51469;-65
2022/04/10 00:32:37;;;;;;;;;9.00;6.00;;;;;;;;5005481;28;51007;-64
2022/04/10 00:35:05;;;;;;;;;8.75;8.25;;;;;;;;5001047;28;51440;-65
2022/04/10 00:37:30;;;;;;;;;6.75;6.00;;;;;;;;5004063;28;51157;-64
2022/04/10 00:39:56;;;;;;;;;6.75;6.50;;;;;;;;5000819;28;51936;-65
2022/04/10 00:42:21;;;;;;;;;9.00;8.00;;;;;;;;5005692;28;51135;-66
2022/04/10 00:44:47;;;;;;;;;8.25;7.25;;;;;;;;4998533;28;51154;-65
2022/04/10 00:47:13;;;;;;;;;8.00;6.25;;;;;;;;5003602;28;51173;-66
2022/04/10 00:49:38;;;;;;;;;4.00;4.00;;;;;;;;5001506;28;52183;-64
2022/04/10 00:52:06;;;;;;;;;4.50;4.50;;;;;;;;5002618;28;51260;-66
2022/04/10 00:54:32;;;;;;;;;10.75;10.25;;;;;;;;5001020;28;52556;-65
2022/04/10 00:57:00;;;;;;;;;8.75;7.00;;;;;;;;4999492;28;51131;-66
2022/04/10 00:59:26;;;;;;;;;8.75;7.50;;;;;;;;4999089;28;51331;-65
2022/04/10 01:01:51;;;;;;;;;9.00;7.00;;;;;;;;5001373;28;52336;-65
2022/04/10 01:04:16;;;;;;;;;9.00;8.25;;;;;;;;4998370;28;52010;-65
2022/04/10 01:06:42;;;;;;;;;6.25;6.00;;;;;;;;4999078;28;51190;-65
2022/04/10 01:09:08;;;;;;;;;11.25;10.00;;;;;;;;4999883;28;51254;-66
2022/04/10 01:11:33;;;;;;;;;8.00;8.00;;;;;;;;4998778;28;51083;-65
2022/04/10 01:14:00;;;;;;;;;10.75;9.00;;;;;;;;5000390;28;52123;-65
2022/04/10 01:16:25;;;;;;;;;12.25;11.75;;;;;;;;4996830;28;51170;-65
2022/04/10 01:18:51;;;;;;;;;16.00;15.25;;;;;;;;5001064;28;51250;-66
2022/04/10 01:21:24;;;;;;;;;15.00;12.75;;;;;;;;4996578;28;51249;-65
2022/04/10 01:23:53;;;;;;;;;12.00;12.00;;;;;;;;5001205;28;51207;-65
2022/04/10 01:26:18;;;;;;;;;11.00;11.00;;;;;;;;4997958;28;52263;-65
2022/04/10 01:29:00;;;;;;;;;12.00;11.25;;;;;;;;5001574;28;52260;-65
2022/04/10 01:31:26;;;;;;;;;10.25;10.25;;;;;;;;4997468;28;52173;-65
2022/04/10 01:33:54;;;;;;;;;13.25;13.00;;;;;;;;4998745;28;51261;-65
2022/04/10 01:36:21;;;;;;;;;15.25;13.25;;;;;;;;4998550;28;51179;-65
2022/04/10 01:38:46;;;;;;;;;7.00;6.25;;;;;;;;4995577;28;51294;-66
2022/04/10 01:41:12;;;;;;;;;12.00;11.25;;;;;;;;4999182;28;51719;-65
2022/04/10 01:43:43;;;;;;;;;11.75;11.00;;;;;;;;4997738;28;52201;-66
2022/04/10 01:46:10;;;;;;;;;11.25;11.25;;;;;;;;4994772;28;51236;-65
2022/04/10 01:48:35;;;;;;;;;11.00;11.00;;;;;;;;4998028;28;51473;-66
2022/04/10 01:51:01;;;;;;;;;12.50;11.50;;;;;;;;4996135;28;51072;-66
2022/04/10 01:53:26;;;;;;;;;12.25;11.75;;;;;;;;4998598;28;51027;-65
2022/04/10 01:55:51;;;;;;;;;6.75;6.75;;;;;;;;4995866;28;51167;-66
2022/04/10 01:58:16;;;;;;;;;8.00;8.00;;;;;;;;5000604;28;51224;-66
2022/04/10 02:00:41;;;;;;;;;8.00;8.00;;;;;;;;4996044;28;51139;-65
2022/04/10 02:03:07;;;;;;;;;11.75;10.50;;;;;;;;4998205;28;52202;-65
2022/04/10 02:05:32;;;;;;;;;6.75;6.75;;;;;;;;4993789;28;51167;-66
2022/04/10 02:07:57;;;;;;;;;8.75;8.25;;;;;;;;5000665;28;51252;-66
2022/04/10 02:10:22;;;;;;;;;11.75;10.00;;;;;;;;4995813;28;51532;-65
2022/04/10 02:12:48;;;;;;;;;7.50;7.50;;;;;;;;4998705;28;52999;-66
2022/04/10 02:15:13;;;;;;;;;11.25;8.50;;;;;;;;4997388;28;51202;-66
2022/04/10 02:17:38;;;;;;;;;6.75;6.00;;;;;;;;5000043;28;51193;-65
2022/04/10 02:20:04;;;;;;;;;9.50;8.00;;;;;;;;4995669;28;52463;-65
2022/04/10 02:22:29;;;;;;;;;11.25;11.25;;;;;;;;4997127;28;51173;-65
2022/04/10 02:24:54;;;;;;;;;12.25;12.00;;;;;;;;4998079;28;51104;-65
2022/04/10 02:27:20;;;;;;;;;13.75;12.00;;;;;;;;4997319;28;52375;-65
2022/04/10 02:29:45;;;;;;;;;12.00;9.00;;;;;;;;4999580;28;51199;-66
2022/04/10 02:32:10;;;;;;;;;11.00;11.00;;;;;;;;4998391;28;53033;-66
2022/04/10 02:34:37;;;;;;;;;10.50;10.50;;;;;;;;5000377;28;51128;-66
2022/04/10 02:37:02;;;;;;;;;9.25;8.25;;;;;;;;4995817;28;51250;-67
2022/04/10 02:39:28;;;;;;;;;11.50;11.00;;;;;;;;4998787;28;51300;-66
2022/04/10 02:41:53;;;;;;;;;13.00;12.00;;;;;;;;5000398;28;51520;-66
2022/04/10 02:44:18;;;;;;;;;10.25;9.75;;;;;;;;4998866;28;51134;-67
2022/04/10 02:46:44;;;;;;;;;11.00;10.00;;;;;;;;4998860;28;51179;-66
2022/04/10 02:49:09;;;;;;;;;15.75;15.00;;;;;;;;5000621;28;51260;-66
2022/04/10 02:51:34;;;;;;;;;13.75;13.25;;;;;;;;4997963;28;52212;-65
2022/04/10 02:53:59;;;;;;;;;14.50;13.00;;;;;;;;4994821;28;51079;-66
2022/04/10 02:56:24;;;;;;;;;13.50;12.50;;;;;;;;4996901;28;51732;-65
2022/04/10 02:58:50;;;;;;;;;12.75;12.50;;;;;;;;4999019;28;51024;-64
2022/04/10 03:01:15;;;;;;;;;11.00;11.00;;;;;;;;4994954;28;51789;-65
2022/04/10 03:03:40;;;;;;;;;11.50;11.25;;;;;;;;5000399;28;51063;-65
2022/04/10 03:06:05;;;;;;;;;9.00;9.00;;;;;;;;5000718;28;51270;-65
2022/04/10 03:08:31;;;;;;;;;11.50;11.00;;;;;;;;5001086;28;52044;-65
2022/04/10 03:10:57;;;;;;;;;10.50;9.50;;;;;;;;4999932;28;51251;-65
2022/04/10 03:13:22;;;;;;;;;10.75;10.75;;;;;;;;5003542;28;51032;-65
2022/04/10 03:15:47;;;;;;;;;12.50;12.50;;;;;;;;5000380;28;51340;-65
2022/04/10 03:18:13;;;;;;;;;13.75;12.75;;;;;;;;5003807;28;51677;-65
2022/04/10 03:20:38;;;;;;;;;12.75;12.00;;;;;;;;5000665;28;51079;-65
2022/04/10 03:23:08;;;;;;;;;15.75;13.50;;;;;;;;5002361;28;51118;-66
2022/04/10 03:25:33;;;;;;;;;12.00;12.00;;;;;;;;4981758;28;52171;-65
2022/04/10 03:27:58;;;;;;;;;20.00;19.50;;;;;;;;5002853;28;52374;-64
2022/04/10 03:30:24;;;;;;;;;21.25;20.00;;;;;;;;5001443;28;52066;-65
2022/04/10 03:32:49;;;;;;;;;23.00;18.00;;;;;;;;5001886;28;51280;-64
2022/04/10 03:35:14;;;;;;;;;20.50;19.75;;;;;;;;5001085;28;51375;-65
2022/04/10 03:37:39;;;;;;;;;18.00;17.00;;;;;;;;5002822;28;51152;-65
2022/04/10 03:40:05;;;;;;;;;26.25;24.50;;;;;;;;4999487;28;51867;-66
2022/04/10 03:42:36;;;;;;;;;26.00;24.75;;;;;;;;4999601;28;51242;-65
2022/04/10 03:45:01;;;;;;;;;30.25;29.25;;;;;;;;5000282;28;51199;-65
2022/04/10 03:47:27;;;;;;;;;27.00;27.00;;;;;;;;5001915;28;51281;-66
2022/04/10 03:49:52;;;;;;;;;28.25;27.00;;;;;;;;5000378;28;52008;-66
2022/04/10 03:52:17;;;;;;;;;36.25;33.00;;;;;;;;5000910;28;51305;-65
2022/04/10 03:54:42;;;;;;;;;32.25;30.75;;;;;;;;5001837;28;51134;-65
2022/04/10 03:57:07;;;;;;;;;39.00;33.50;;;;;;;;5000898;28;51112;-65
2022/04/10 03:59:33;;;;;;;;;31.00;30.50;;;;;;;;5001472;28;52254;-66
2022/04/10 04:01:58;;;;;;;;;38.25;37.25;;;;;;;;5002563;28;51221;-66
2022/04/10 04:04:23;;;;;;;;;31.50;31.25;;;;;;;;5000814;28;51417;-65
2022/04/10 04:06:48;;;;;;;;;35.75;31.75;;;;;;;;5004659;28;52137;-65
2022/04/10 04:09:14;;;;;;;;;38.75;37.75;;;;;;;;5001320;28;51099;-65
2022/04/10 04:11:39;;;;;;;;;37.50;34.50;;;;;;;;5002553;28;51102;-66
2022/04/10 04:14:04;;;;;;;;;35.75;34.50;;;;;;;;5001972;28;51056;-65
2022/04/10 04:16:31;;;;;;;;;33.75;31.25;;;;;;;;4999969;28;50897;-65
2022/04/10 04:18:56;;;;;;;;;35.00;34.25;;;;;;;;5002249;28;52249;-64
2022/04/10 04:21:21;;;;;;;;;30.50;29.00;;;;;;;;5001295;28;51211;-65
2022/04/10 04:23:48;;;;;;;;;41.50;37.25;;;;;;;;4998849;28;51158;-65
2022/04/10 04:26:13;;;;;;;;;33.75;32.00;;;;;;;;4995144;28;51369;-64
2022/04/10 04:28:38;;;;;;;;;38.25;35.75;;;;;;;;4999939;28;52376;-65
2022/04/10 04:31:03;;;;;;;;;36.00;33.75;;;;;;;;5000083;28;51105;-66
2022/04/10 04:33:29;;;;;;;;;44.00;40.00;;;;;;;;5000252;28;52098;-65
2022/04/10 04:35:54;;;;;;;;;40.50;38.00;;;;;;;;4999657;28;51116;-65
2022/04/10 04:38:19;;;;;;;;;39.00;35.75;;;;;;;;4998207;28;52289;-66
2022/04/10 04:40:44;;;;;;;;;33.50;33.00;;;;;;;;5000767;28;51030;-65
2022/04/10 04:43:10;;;;;;;;;37.25;33.75;;;;;;;;5001689;28;51833;-67
2022/04/10 04:45:35;;;;;;;;;39.50;37.75;;;;;;;;5001737;28;52176;-66
2022/04/10 04:48:00;;;;;;;;;40.75;37.75;;;;;;;;5001423;28;51404;-66
2022/04/10 04:50:25;;;;;;;;;38.00;35.25;;;;;;;;5003109;28;51238;-65
2022/04/10 04:52:51;;;;;;;;;39.50;37.75;;;;;;;;5003792;28;50988;-66
2022/04/10 04:55:16;;;;;;;;;41.25;38.00;;;;;;;;5004972;28;50998;-65
2022/04/10 04:57:41;;;;;;;;;35.75;33.50;;;;;;;;5001943;28;52179;-66
2022/04/10 05:00:07;;;;;;;;;26.75;25.50;;;;;;;;5003317;28;52129;-66
2022/04/10 05:02:32;;;;;;;;;37.00;35.50;;;;;;;;5001054;28;51139;-65
2022/04/10 05:04:57;;;;;;;;;38.75;36.25;;;;;;;;5000108;28;52179;-65
2022/04/10 05:07:23;;;;;;;;;41.50;38.50;;;;;;;;5003661;28;51242;-65
2022/04/10 05:09:48;;;;;;;;;42.00;37.50;;;;;;;;5002212;28;51251;-67
2022/04/10 05:12:13;;;;;;;;;42.25;40.00;;;;;;;;5003350;28;51238;-66
2022/04/10 05:14:39;;;;;;;;;43.50;38.00;;;;;;;;5002300;28;52450;-66
2022/04/10 05:17:04;;;;;;;;;42.00;38.75;;;;;;;;5000786;28;51941;-66
2022/04/10 05:19:29;;;;;;;;;40.25;37.00;;;;;;;;5001548;28;51129;-66
2022/04/10 05:21:54;;;;;;;;;38.00;38.00;;;;;;;;5000785;28;51105;-66
2022/04/10 05:24:20;;;;;;;;;38.00;36.75;;;;;;;;4999579;28;51386;-65
2022/04/10 05:26:46;;;;;;;;;41.25;37.25;;;;;;;;4999010;28;52939;-65
2022/04/10 05:29:11;;;;;;;;;37.50;36.50;;;;;;;;4999638;28;51107;-66
2022/04/10 05:31:36;;;;;;;;;42.50;38.00;;;;;;;;4999773;28;51155;-65
2022/04/10 05:34:01;;;;;;;;;36.50;34.75;;;;;;;;4982267;28;51122;-65
2022/04/10 05:36:27;;;;;;;;;34.50;33.00;;;;;;;;4997584;28;53303;-66
2022/04/10 05:38:52;;;;;;;;;38.25;37.75;;;;;;;;5001153;28;51202;-66
2022/04/10 05:41:17;;;;;;;;;41.25;38.00;;;;;;;;4999990;28;51697;-66
2022/04/10 05:43:42;;;;;;;;;34.75;32.50;;;;;;;;5002087;28;51459;-65
2022/04/10 05:46:08;;;;;;;;;44.75;41.25;;;;;;;;4996432;28;51061;-65
2022/04/10 05:48:33;;;;;;;;;39.50;38.00;;;;;;;;5001317;28;52158;-66
2022/04/10 05:50:58;;;;;;;;;41.25;37.75;;;;;;;;4999487;28;51248;-65
2022/04/10 05:53:23;;;;;;;;;47.75;40.25;;;;;;;;5001202;28;51238;-65
2022/04/10 05:55:49;;;;;;;;;40.50;38.00;;;;;;;;4997052;28;53021;-66
2022/04/10 05:58:14;;;;;;;;;46.50;40.50;;;;;;;;5003387;28;51083;-65
2022/04/10 06:00:39;;;;;;;;;35.50;34.75;;;;;;;;5002275;28;51048;-65
2022/04/10 06:03:04;;;;;;;;;39.00;36.75;;;;;;;;4996502;28;52095;-65
2022/04/10 06:05:30;;;;;;;;;46.75;40.25;;;;;;;;5002375;28;51774;-65
2022/04/10 06:07:55;;;;;;;;;37.25;33.00;;;;;;;;4999959;28;51151;-65
2022/04/10 06:10:21;;;;;;;;;35.75;33.00;;;;;;;;4999985;28;52103;-66
2022/04/10 06:12:46;;;;;;;;;38.25;35.25;;;;;;;;4998323;28;52184;-66
2022/04/10 06:15:11;;;;;;;;;29.75;29.75;;;;;;;;5001013;28;52444;-66
2022/04/10 06:17:36;;;;;;;;;34.75;33.50;;;;;;;;4997884;28;51720;-66
2022/04/10 06:20:02;;;;;;;;;39.00;34.75;;;;;;;;4998995;28;51690;-66
2022/04/10 06:22:27;;;;;;;;;30.50;29.00;;;;;;;;4999486;28;51173;-66
2022/04/10 06:24:53;;;;;;;;;33.50;32.25;;;;;;;;4998006;28;51934;-66
2022/04/10 06:27:19;;;;;;;;;39.75;35.75;;;;;;;;4995648;28;52607;-66
2022/04/10 06:29:44;;;;;;;;;40.00;35.00;;;;;;;;4999761;28;52246;-66
2022/04/10 06:32:09;;;;;;;;;36.50;34.00;;;;;;;;4999606;28;51377;-66
2022/04/10 06:34:35;;;;;;;;;36.75;33.50;;;;;;;;5000415;28;51548;-66
2022/04/10 06:37:00;;;;;;;;;40.75;36.25;;;;;;;;4994057;28;51634;-66
2022/04/10 06:39:25;;;;;;;;;36.25;32.75;;;;;;;;4997697;28;52373;-65
2022/04/10 06:41:51;;;;;;;;;41.50;35.75;;;;;;;;5002927;28;51246;-65
2022/04/10 06:44:17;;;;;;;;;35.75;33.00;;;;;;;;5000042;28;52464;-66
2022/04/10 06:46:42;;;;;;;;;40.75;34.50;;;;;;;;5001926;28;51318;-65
2022/04/10 06:49:07;;;;;;;;;40.00;33.50;;;;;;;;5003424;28;51059;-65
2022/04/10 06:51:32;;;;;;;;;37.25;32.25;;;;;;;;5002934;28;51187;-65
2022/04/10 06:53:58;;;;;;;;;50.50;42.50;;;;;;;;5004038;28;51113;-67
2022/04/10 06:56:23;;;;;;;;;40.25;35.50;;;;;;;;5001871;28;51028;-67
2022/04/10 06:58:48;;;;;;;;;34.00;31.75;;;;;;;;5002679;28;51432;-66
2022/04/10 07:01:14;;;;;;;;;34.00;31.50;;;;;;;;5002766;28;51016;-66
2022/04/10 07:03:39;;;;;;;;;32.25;30.00;;;;;;;;5001506;28;51114;-66
2022/04/10 07:06:05;;;;;;;;;34.25;32.00;;;;;;;;5001784;28;51071;-66
2022/04/10 07:08:32;;;;;;;;;34.50;32.00;;;;;;;;5002670;28;51169;-65
2022/04/10 07:10:57;;;;;;;;;62.00;49.75;;;;;;;;5003660;28;51276;-66
2022/04/10 07:13:22;;;;;;;;;30.00;29.00;;;;;;;;5001068;28;52421;-65
2022/04/10 07:15:52;;;;;;;;;30.25;29.25;;;;;;;;5004159;28;51180;-66
2022/04/10 07:18:18;;;;;;;;;26.25;23.25;;;;;;;;5005373;28;51244;-66
2022/04/10 07:20:43;;;;;;;;;24.50;23.75;;;;;;;;5004122;28;52408;-66
2022/04/10 07:25:53;;;;;;;;;21.67;17.00;;;;;;;;5002595;28;52342;-67
2022/04/10 07:28:19;;;;;;;;;16.00;14.33;;;;;;;;5005135;28;51025;-66
2022/04/10 07:30:44;;;;;;;;;13.00;12.00;;;;;;;;5005236;28;51302;-66
2022/04/10 07:33:09;;;;;;;;;15.67;15.67;;;;;;;;5002693;28;51808;-66
2022/04/10 07:35:35;;;;;;;;;19.33;17.33;;;;;;;;5004143;28;51380;-66
2022/04/10 07:38:00;;;;;;;;;16.00;16.00;;;;;;;;5002600;28;52324;-66
2022/04/10 07:40:26;;;;;;;;;14.33;13.33;;;;;;;;5001294;28;51410;-66
2022/04/10 07:42:52;;;;;;;;;11.00;11.00;;;;;;;;5001646;28;52999;-67
2022/04/10 07:48:01;;;;;;;;;7.67;7.00;;;;;;;;5000621;28;52536;-65
2022/04/10 07:50:28;;;;;;;;;8.33;8.33;;;;;;;;5001428;28;51328;-66
2022/04/10 07:52:54;;;;;;;;;13.00;13.00;;;;;;;;5003150;28;52386;-70
2022/04/10 07:55:19;;;;;;;;;9.00;7.67;;;;;;;;5010749;28;50989;-66
2022/04/10 07:57:44;;;;;;;;;9.00;9.00;;;;;;;;5010340;28;50912;-67
2022/04/10 08:00:11;;;;;;;;;8.00;7.00;;;;;;;;5015270;28;51004;-67
2022/04/10 08:02:37;;;;;;;;;4.00;4.00;;;;;;;;5008993;28;51244;-67
2022/04/10 08:05:03;;;;;;;;;4.00;4.00;;;;;;;;5010421;28;51162;-68
2022/04/10 08:07:28;;;;;;;;;6.00;4.67;;;;;;;;5008341;28;51195;-69
2022/04/10 08:09:53;;;;;;;;;9.67;8.67;;;;;;;;5011424;28;51838;-69
2022/04/10 08:12:19;;;;;;;;;7.00;7.00;;;;;;;;5010022;28;51806;-67
2022/04/10 08:14:44;;;;;;;;;5.67;5.33;;;;;;;;5008796;28;51130;-68
2022/04/10 08:17:11;;;;;;;;;6.67;6.67;;;;;;;;5009104;28;51106;-67
2022/04/10 08:19:37;;;;;;;;;6.00;6.00;;;;;;;;5007834;28;51010;-66
2022/04/10 08:22:02;;;;;;;;;6.67;6.67;;;;;;;;5006558;28;51144;-67
2022/04/10 08:24:28;;;;;;;;;6.67;6.67;;;;;;;;5021163;28;51101;-66
2022/04/10 08:26:53;;;;;;;;;6.00;5.00;;;;;;;;5004475;28;51650;-66
2022/04/10 08:29:18;;;;;;;;;7.33;7.00;;;;;;;;5009867;28;51480;-68
2022/04/10 08:31:44;;;;;;;;;8.33;7.00;;;;;;;;5009128;28;51946;-66
2022/04/10 08:34:09;;;;;;;;;13.00;12.67;;;;;;;;5009750;28;51297;-66
2022/04/10 08:36:35;;;;;;;;;16.67;16.33;;;;;;;;5007770;28;51254;-65
2022/04/10 08:39:00;;;;;;;;;15.33;14.33;;;;;;;;5010436;28;51146;-67
2022/04/10 08:41:31;;;;;;;;;13.33;13.33;;;;;;;;5008576;28;50995;-67
2022/04/10 08:43:58;;;;;;;;;14.33;14.33;;;;;;;;5010282;28;51378;-67
2022/04/10 08:46:24;;;;;;;;;11.33;10.33;;;;;;;;5007801;28;51183;-66
2022/04/10 08:48:50;;;;;;;;;8.00;7.00;;;;;;;;5012302;28;51090;-69
2022/04/10 08:51:15;;;;;;;;;6.00;5.67;;;;;;;;5025560;28;52764;-68
2022/04/10 08:53:42;;;;;;;;;7.00;7.00;;;;;;;;5012433;28;51164;-66
2022/04/10 08:56:08;;;;;;;;;6.00;6.00;;;;;;;;5007486;28;51137;-67
2022/04/10 08:58:34;;;;;;;;;5.33;5.00;;;;;;;;5012925;28;51323;-67
2022/04/10 09:00:59;;;;;;;;;7.00;7.00;;;;;;;;5010591;28;51832;-66
2022/04/10 09:03:24;;;;;;;;;9.33;9.33;;;;;;;;5011408;28;51111;-66
2022/04/10 09:06:03;;;;;;;;;10.00;9.33;;;;;;;;5010291;28;51042;-67
2022/04/10 09:08:28;;;;;;;;;13.33;12.00;;;;;;;;5012706;28;51053;-67
2022/04/10 09:10:58;;;;;;;;;17.00;14.33;;;;;;;;5008678;28;51551;-67
2022/04/10 09:13:27;;;;;;;;;12.00;12.00;;;;;;;;5011877;28;51001;-67
2022/04/10 09:16:00;;;;;;;;;8.00;8.00;;;;;;;;5010966;28;51139;-67
2022/04/10 09:18:25;;;;;;;;;6.00;6.00;;;;;;;;5012982;28;51263;-67
2022/04/10 09:21:04;;;;;;;;;13.33;11.00;;;;;;;;5009180;28;51330;-67
2022/04/10 09:23:29;;;;;;;;;7.67;7.67;;;;;;;;5012027;28;51039;-67
2022/04/10 09:25:57;;;;;;;;;11.33;10.33;;;;;;;;5005869;28;51256;-66
2022/04/10 09:28:38;;;;;;;;;8.67;8.00;;;;;;;;5007083;28;51267;-66
2022/04/10 09:31:22;;;;;;;;;8.67;8.67;;;;;;;;5002667;28;52108;-66
2022/04/10 09:33:49;;;;;;;;;6.33;6.00;;;;;;;;5004790;28;51017;-67
2022/04/10 09:36:26;;;;;;;;;8.67;8.00;;;;;;;;5010689;28;50933;-67
2022/04/10 09:38:51;;;;;;;;;8.33;8.00;;;;;;;;5002053;28;51302;-68
2022/04/10 09:41:19;;;;;;;;;9.00;9.00;;;;;;;;5008227;28;52820;-67
2022/04/10 09:43:44;;;;;;;;;9.00;8.67;;;;;;;;5011254;28;50877;-67
2022/04/10 09:46:13;;;;;;;;;7.00;6.67;;;;;;;;5009737;28;51071;-67
2022/04/10 09:48:39;;;;;;;;;5.00;5.00;;;;;;;;5012153;28;50988;-67
2022/04/10 09:51:04;;;;;;;;;6.67;6.67;;;;;;;;5007958;28;51096;-67
2022/04/10 09:53:31;;;;;;;;;3.00;3.00;;;;;;;;5012061;28;51187;-67
2022/04/10 09:55:58;;;;;;;;;6.33;6.33;;;;;;;;5009854;28;51110;-67
2022/04/10 09:58:25;;;;;;;;;6.00;6.00;;;;;;;;5013461;28;51646;-67
2022/04/10 10:00:53;;;;;;;;;8.00;6.67;;;;;;;;5004065;28;51310;-67
2022/04/10 10:03:20;;;;;;;;;7.00;6.00;;;;;;;;5007187;28;51480;-69
2022/04/10 10:05:46;;;;;;;;;5.00;5.00;;;;;;;;5004390;28;51049;-68
2022/04/10 10:08:11;;;;;;;;;6.00;4.00;;;;;;;;5010154;28;50964;-70
2022/04/10 10:10:37;;;;;;;;;4.67;4.00;;;;;;;;5005487;28;52247;-69
2022/04/10 10:13:04;;;;;;;;;6.67;6.00;;;;;;;;5010481;28;51112;-70
2022/04/10 10:15:29;;;;;;;;;5.33;5.00;;;;;;;;5008137;28;50956;-71
2022/04/10 10:17:54;;;;;;;;;7.67;6.00;;;;;;;;5006760;28;51108;-70
2022/04/10 10:20:20;;;;;;;;;6.00;6.00;;;;;;;;5003598;28;51066;-70
2022/04/10 10:22:46;;;;;;;;;4.00;4.00;;;;;;;;4995353;28;51283;-70
2022/04/10 10:25:16;;;;;;;;;5.67;5.67;;;;;;;;5008388;28;51115;-67
2022/04/10 10:27:53;;;;;;;;;7.00;6.33;;;;;;;;5013279;28;51145;-67
2022/04/10 10:30:37;;;;;;;;;5.00;5.00;;;;;;;;5007589;28;51385;-68
2022/04/10 10:33:28;;;;;;;;;7.33;6.00;;;;;;;;5010463;28;51227;-66
2022/04/10 10:35:58;;;;;;;;;6.00;6.00;;;;;;;;5004231;28;51412;-67
2022/04/10 10:38:27;;;;;;;;;4.33;4.00;;;;;;;;5009814;28;50993;-66
2022/04/10 10:41:04;;;;;;;;;6.00;5.33;;;;;;;;5007402;28;51862;-68
2022/04/10 10:43:29;;;;;;;;;6.33;6.00;;;;;;;;5006939;28;51606;-68
2022/04/10 10:45:57;;;;;;;;;8.00;7.00;;;;;;;;5005501;28;51234;-67
2022/04/10 10:48:43;;;;;;;;;5.67;5.67;;;;;;;;5008718;28;50953;-67
2022/04/10 10:51:11;;;;;;;;;7.00;7.00;;;;;;;;4996327;28;51910;-68
2022/04/10 10:53:45;;;;;;;;;7.00;6.67;;;;;;;;5007445;28;52049;-68
2022/04/10 10:56:13;;;;;;;;;7.33;7.00;;;;;;;;5004450;28;51202;-68
2022/04/10 10:58:40;;;;;;;;;8.33;8.33;;;;;;;;5007989;28;51141;-67
2022/04/10 11:01:06;;;;;;;;;6.67;6.33;;;;;;;;5002954;28;52011;-67
2022/04/10 11:03:31;;;;;;;;;9.00;9.00;;;;;;;;5006913;28;50898;-67
2022/04/10 11:06:03;;;;;;;;;8.00;8.00;;;;;;;;5005205;28;51092;-67
2022/04/10 11:08:39;;;;;;;;;8.67;8.33;;;;;;;;5015841;28;52659;-67
2022/04/10 11:11:05;;;;;;;;;6.00;6.00;;;;;;;;5005983;28;53111;-62
2022/04/10 11:13:50;;;;;;;;;8.33;7.33;;;;;;;;5007808;28;51187;-64
2022/04/10 11:16:15;;;;;;;;;8.33;8.00;;;;;;;;5011201;28;51147;-62
2022/04/10 11:18:42;;;;;;;;;9.33;9.33;;;;;;;;5011537;28;51208;-61
2022/04/10 11:21:13;;;;;;;;;9.67;8.67;;;;;;;;5004847;28;52159;-61
2022/04/10 11:23:44;;;;;;;;;7.33;7.33;;;;;;;;5014451;28;51223;-60
2022/04/10 11:26:12;;;;;;;;;7.67;7.67;;;;;;;;5011066;28;51145;-61
2022/04/10 11:28:56;;;;;;;;;10.00;9.67;;;;;;;;5027090;28;51333;-61
2022/04/10 11:31:27;;;;;;;;;11.33;11.00;;;;;;;;5007846;28;51222;-61
2022/04/10 11:33:55;;;;;;;;;9.00;9.00;;;;;;;;5011631;28;51201;-61
2022/04/10 11:36:20;;;;;;;;;8.67;8.67;;;;;;;;5007407;28;51140;-61
2022/04/10 11:39:08;;;;;;;;;6.00;6.00;;;;;;;;5011257;28;50976;-61
2022/04/10 11:41:34;;;;;;;;;7.00;6.00;;;;;;;;5007290;28;51157;-60
2022/04/10 11:43:59;;;;;;;;;8.00;8.00;;;;;;;;5011585;28;51034;-61
2022/04/10 11:46:26;;;;;;;;;8.33;8.33;;;;;;;;5007110;28;51084;-62
2022/04/10 11:48:55;;;;;;;;;10.00;9.00;;;;;;;;5012887;28;52600;-62
2022/04/10 11:51:20;;;;;;;;;9.33;7.00;;;;;;;;5007113;28;51182;-61
2022/04/10 11:53:53;;;;;;;;;9.00;8.67;;;;;;;;5011798;28;51033;-61
2022/04/10 11:56:19;;;;;;;;;8.00;8.00;;;;;;;;5006953;28;51049;-61
2022/04/10 11:58:44;;;;;;;;;15.33;14.33;;;;;;;;5012111;28;51284;-61
2022/04/10 12:01:10;;;;;;;;;8.33;7.67;;;;;;;;4997009;28;52770;-61
2022/04/10 12:03:40;;;;;;;;;10.00;10.00;;;;;;;;5002174;28;51528;-62
2022/04/10 12:06:06;;;;;;;;;8.33;8.00;;;;;;;;4997092;28;51089;-63
2022/04/10 12:08:31;;;;;;;;;8.00;8.00;;;;;;;;5008774;28;51127;-62
2022/04/10 12:10:58;;;;;;;;;9.33;9.00;;;;;;;;5014127;28;52133;-62
2022/04/10 12:13:27;;;;;;;;;10.33;9.67;;;;;;;;5004461;28;51281;-63
2022/04/10 12:16:08;;;;;;;;;10.33;10.00;;;;;;;;5005435;28;51239;-63
2022/04/10 12:18:44;;;;;;;;;13.33;11.67;;;;;;;;5009267;28;51381;-63
2022/04/10 12:21:10;;;;;;;;;10.00;10.00;;;;;;;;5021446;28;51794;-63
2022/04/10 12:23:35;;;;;;;;;10.00;10.00;;;;;;;;5010610;28;50877;-62
2022/04/10 12:26:01;;;;;;;;;9.00;9.00;;;;;;;;5009525;28;51209;-62
2022/04/10 12:28:28;;;;;;;;;10.00;9.67;;;;;;;;5010307;28;51439;-64
2022/04/10 12:30:54;;;;;;;;;10.00;10.00;;;;;;;;5002607;28;51831;-61
2022/04/10 12:33:20;;;;;;;;;8.00;8.00;;;;;;;;5010824;28;51107;-63
2022/04/10 12:35:45;;;;;;;;;12.00;11.33;;;;;;;;5006996;28;52600;-64
2022/04/10 12:38:11;;;;;;;;;9.33;9.33;;;;;;;;5012390;28;51352;-63
2022/04/10 12:40:37;;;;;;;;;8.67;7.67;;;;;;;;5005305;28;52368;-63
2022/04/10 12:43:03;;;;;;;;;9.67;9.00;;;;;;;;5011800;28;50949;-63
2022/04/10 12:45:32;;;;;;;;;7.00;7.00;;;;;;;;5007360;28;51377;-63
2022/04/10 12:47:57;;;;;;;;;7.67;7.33;;;;;;;;5011944;28;50976;-63
2022/04/10 12:50:24;;;;;;;;;10.00;10.00;;;;;;;;5009507;28;51236;-62
2022/04/10 12:52:52;;;;;;;;;11.00;11.00;;;;;;;;5011870;28;51154;-63
2022/04/10 12:55:24;;;;;;;;;12.00;10.33;;;;;;;;5009242;28;51139;-62
2022/04/10 12:57:52;;;;;;;;;10.00;9.67;;;;;;;;5008921;28;51294;-62
2022/04/10 13:00:25;;;;;;;;;11.00;11.00;;;;;;;;5007723;28;51816;-63
2022/04/10 13:02:52;;;;;;;;;11.67;11.67;;;;;;;;5009909;28;51050;-63
2022/04/10 13:05:18;;;;;;;;;8.33;8.00;;;;;;;;5009124;28;51064;-63
2022/04/10 13:07:57;;;;;;;;;10.00;9.33;;;;;;;;5011311;28;51308;-62
2022/04/10 13:10:22;;;;;;;;;9.00;8.33;;;;;;;;5006906;28;52226;-63
2022/04/10 13:12:47;;;;;;;;;8.00;8.00;;;;;;;;5011101;28;51098;-63
2022/04/10 13:15:27;;;;;;;;;10.00;10.00;;;;;;;;5006906;28;51436;-63
2022/04/10 13:17:55;;;;;;;;;9.33;9.00;;;;;;;;5009824;28;51155;-62
2022/04/10 13:20:23;;;;;;;;;10.00;10.00;;;;;;;;5005948;28;52578;-62
2022/04/10 13:22:48;;;;;;;;;9.00;9.00;;;;;;;;5011126;28;50899;-63
2022/04/10 13:25:13;;;;;;;;;11.25;10.00;;;;;;;;5005393;28;50912;-62
2022/04/10 13:27:39;;;;;;;;;9.00;7.67;;;;;;;;5009928;28;51225;-62
2022/04/10 13:30:04;;;;;;;;;10.00;10.00;;;;;;;;5008613;28;52118;-62
2022/04/10 13:32:30;;;;;;;;;10.00;9.00;;;;;;;;5008922;28;51101;-62
2022/04/10 13:34:55;;;;;;;;;12.00;11.00;;;;;;;;5008578;28;51156;-62
2022/04/10 13:37:21;;;;;;;;;9.00;9.00;;;;;;;;5009295;28;50974;-62
2022/04/10 13:39:47;;;;;;;;;7.50;7.50;;;;;;;;5003963;28;52093;-62
2022/04/10 13:42:13;;;;;;;;;11.75;11.50;;;;;;;;5010881;28;51217;-62
2022/04/10 13:44:38;;;;;;;;;11.00;10.25;;;;;;;;5009338;28;51078;-62
2022/04/10 13:47:04;;;;;;;;;10.67;10.33;;;;;;;;5009191;28;51314;-63
2022/04/10 13:49:29;;;;;;;;;6.00;5.67;;;;;;;;5008156;28;52461;-62
2022/04/10 13:51:54;;;;;;;;;5.00;5.00;;;;;;;;5006925;28;51012;-62
2022/04/10 13:54:20;;;;;;;;;7.67;7.67;;;;;;;;5000859;28;51028;-63
2022/04/10 13:56:45;;;;;;;;;8.25;8.25;;;;;;;;5006486;28;54952;-63
2022/04/10 13:59:10;;;;;;;;;8.75;8.50;;;;;;;;5009584;28;51240;-63
2022/04/10 14:01:35;;;;;;;;;6.00;5.33;;;;;;;;5001282;28;51464;-64
2022/04/10 14:04:01;;;;;;;;;9.50;8.75;;;;;;;;5016418;28;51141;-62
2022/04/10 14:06:27;;;;;;;;;9.00;8.00;;;;;;;;4994992;28;51291;-62
2022/04/10 14:08:52;;;;;;;;;10.00;8.00;;;;;;;;5004566;28;52370;-61
2022/04/10 14:11:18;;;;;;;;;6.50;6.50;;;;;;;;4996601;28;51632;-62
2022/04/10 14:13:44;;;;;;;;;6.50;6.50;;;;;;;;5002994;28;51228;-63
2022/04/10 14:16:10;;;;;;;;;8.50;8.25;;;;;;;;5006816;28;51085;-62
2022/04/10 14:18:35;;;;;;;;;10.25;9.75;;;;;;;;5007785;28;51179;-62
2022/04/10 14:21:00;;;;;;;;;12.00;10.50;;;;;;;;5007381;28;50992;-62
2022/04/10 14:23:26;;;;;;;;;8.00;8.00;;;;;;;;5008759;28;51285;-62
2022/04/10 14:25:51;;;;;;;;;8.00;8.00;;;;;;;;5003521;28;51043;-62
2022/04/10 14:28:16;;;;;;;;;7.25;7.00;;;;;;;;5005999;28;51971;-64
2022/04/10 14:30:42;;;;;;;;;7.00;6.00;;;;;;;;5007071;28;51063;-63